Time;durP1;ratioP1;P1;durP2;ratioP2;P2;SDS_P1;SDS_P2;PMS_P1;PMS_P2;Temp;Humidity;BMP_temperature;BMP_pressure;BME280_temperature;BME280_humidity;BME280_pressure;Samples;Min_cycle;Max_cycle;Signal;HPM_P1;HPM_P2
2024/02/01 00:00:20;;;;;;;;;14.17;13.33;;;;;10.75;68.55;103090.66;2071984;27;1831543;-74
2024/02/01 00:01:33;;;;;;;;;14.33;13.17;;;;;10.75;68.57;103085.41;2048144;27;1832607;-74
2024/02/01 00:02:44;;;;;;;;;18.00;14.00;;;;;10.77;68.70;103086.28;2016399;27;2816937;-74
2024/02/01 00:03:55;;;;;;;;;14.50;14.50;;;;;10.78;68.49;103090.69;2022646;27;2786670;-74
2024/02/01 00:05:06;;;;;;;;;16.00;14.00;;;;;10.80;68.68;103082.78;2025831;27;2798167;-74
2024/02/01 00:06:19;;;;;;;;;18.80;14.80;;;;;10.82;68.57;103093.31;2076112;27;2818973;-74
2024/02/01 00:07:30;;;;;;;;;15.60;15.60;;;;;10.83;68.48;103084.56;2053631;27;1823303;-74
2024/02/01 00:08:44;;;;;;;;;13.17;12.67;;;;;10.83;68.43;103088.06;2061039;27;1824251;-74
2024/02/01 00:09:54;;;;;;;;;19.50;15.50;;;;;10.82;68.26;103081.03;2009462;27;2820073;-74
2024/02/01 00:11:05;;;;;;;;;17.00;14.50;;;;;10.83;68.32;103085.44;2040621;27;2798132;-74
2024/02/01 00:12:16;;;;;;;;;16.00;15.00;;;;;10.84;68.65;103079.28;2052180;27;2812761;-74
2024/02/01 00:13:27;;;;;;;;;16.00;14.50;;;;;10.85;68.63;103069.66;2013075;27;2801296;-74
2024/02/01 00:14:38;;;;;;;;;16.00;14.00;;;;;10.85;68.57;103074.91;2016563;27;2801319;-74
2024/02/01 00:15:49;;;;;;;;;14.00;14.00;;;;;10.85;68.32;103070.53;2028728;27;1827339;-74
2024/02/01 00:17:02;;;;;;;;;16.40;14.20;;;;;10.87;68.49;103071.41;2026848;27;2802345;-74
2024/02/01 00:18:13;;;;;;;;;20.00;18.00;;;;;10.87;68.57;103063.53;2023292;27;2815866;-74
2024/02/01 00:19:24;;;;;;;;;15.50;14.00;;;;;10.89;68.56;103066.19;2018380;27;2810168;-74
2024/02/01 00:20:36;;;;;;;;;20.00;15.67;;;;;10.90;68.44;103054.75;2025912;27;2826314;-74
2024/02/01 00:21:49;;;;;;;;;18.33;15.67;;;;;10.90;68.90;103047.75;2037141;27;2811705;-74
2024/02/01 00:22:59;;;;;;;;;15.00;13.50;;;;;10.91;68.25;103043.38;2039944;27;2791949;-74
2024/02/01 00:24:10;;;;;;;;;12.50;12.50;;;;;10.91;68.55;103031.06;2057332;27;2791921;-74
2024/02/01 00:25:21;;;;;;;;;12.00;12.00;;;;;10.92;68.51;103029.31;2026744;27;2783591;-74
2024/02/01 00:26:32;;;;;;;;;18.00;14.00;;;;;10.92;68.63;103029.31;2057385;27;2799220;-74
2024/02/01 00:27:45;;;;;;;;;17.17;13.00;;;;;10.93;68.46;103040.72;2083828;27;2799178;-74
2024/02/01 00:28:56;;;;;;;;;22.00;15.50;;;;;10.93;68.41;103040.72;2033907;27;2838788;-74
2024/02/01 00:30:07;;;;;;;;;9.00;8.00;;;;;10.92;68.77;103029.31;2025977;27;2746060;-74
2024/02/01 00:31:18;;;;;;;;;14.00;12.50;;;;;10.93;68.58;103022.31;2039474;27;2783608;-74
2024/02/01 00:32:31;;;;;;;;;12.00;12.00;;;;;10.91;68.57;103017.91;2051833;27;2779414;-74
2024/02/01 00:33:43;;;;;;;;;14.00;14.00;;;;;10.91;68.69;103020.53;2031199;27;2789851;-74
2024/02/01 00:34:54;;;;;;;;;23.50;15.50;;;;;10.91;68.62;103011.81;2033416;27;2826248;-74
2024/02/01 00:36:05;;;;;;;;;16.00;15.50;;;;;10.91;68.47;103011.81;2028245;27;2812762;-74
2024/02/01 00:37:16;;;;;;;;;20.00;19.50;;;;;10.90;68.71;103005.66;2019580;27;2830449;-74
2024/02/01 00:38:27;;;;;;;;;14.50;14.50;;;;;10.90;68.52;103005.66;2016723;27;2789855;-74
2024/02/01 00:39:38;;;;;;;;;17.00;15.00;;;;;10.89;68.90;103005.66;2049752;27;2807534;-74
2024/02/01 00:40:51;;;;;;;;;17.67;12.17;;;;;10.89;68.56;103008.28;2067874;27;2799233;-74
2024/02/01 00:42:02;;;;;;;;;17.00;14.00;;;;;10.88;68.76;103015.31;2036009;27;1824273;-74
2024/02/01 00:43:13;;;;;;;;;27.00;18.00;;;;;10.88;68.79;103009.16;2009064;27;2841923;-74
2024/02/01 00:44:24;;;;;;;;;13.50;13.50;;;;;10.87;68.77;103010.00;2034482;27;2792942;-74
2024/02/01 00:45:35;;;;;;;;;14.50;13.50;;;;;10.87;68.69;103012.66;2057464;27;2794017;-74
2024/02/01 00:46:46;;;;;;;;;14.50;13.50;;;;;10.86;69.00;103016.16;2035179;27;2785648;-74
2024/02/01 00:47:57;;;;;;;;;19.75;14.25;;;;;10.84;68.93;103015.28;2069445;27;1823210;-74
2024/02/01 00:49:07;;;;;;;;;20.00;14.50;;;;;10.82;69.06;103019.66;2015592;27;2799248;-74
2024/02/01 00:50:20;;;;;;;;;19.60;16.20;;;;;10.80;68.57;103002.13;2041776;27;2818061;-74
2024/02/01 00:51:31;;;;;;;;;16.00;14.00;;;;;10.79;69.17;102995.09;2024772;27;2805471;-74
2024/02/01 00:52:44;;;;;;;;;18.50;16.33;;;;;10.80;68.82;102988.09;2066482;27;2833598;-74
2024/02/01 00:53:56;;;;;;;;;13.00;12.20;;;;;10.79;69.00;102981.94;2046858;27;1821143;-74
2024/02/01 00:55:10;;;;;;;;;16.83;14.67;;;;;10.78;69.02;102985.47;2071442;27;1820082;-74
2024/02/01 00:56:23;;;;;;;;;15.83;15.50;;;;;10.78;68.96;102976.69;2045442;27;1840926;-74
2024/02/01 00:57:36;;;;;;;;;13.33;13.17;;;;;10.77;69.18;102983.69;2048276;27;1821147;-74
2024/02/01 00:58:46;;;;;;;;;14.00;12.00;;;;;10.76;69.45;102981.94;2016727;27;2780850;-74
2024/02/01 00:59:57;;;;;;;;;17.00;14.00;;;;;10.75;69.30;102985.44;2033487;27;2802322;-74
2024/02/01 01:01:08;;;;;;;;;16.00;15.50;;;;;10.75;69.41;102985.44;2057315;27;2812789;-74
2024/02/01 01:02:20;;;;;;;;;16.20;14.00;;;;;10.73;69.44;102981.94;2036792;27;2823144;-74
2024/02/01 01:03:32;;;;;;;;;20.33;17.67;;;;;10.74;69.42;102973.16;2038003;27;2832635;-74
2024/02/01 01:04:45;;;;;;;;;16.50;16.17;;;;;10.73;69.37;102965.28;2070023;27;1823286;-74
2024/02/01 01:05:55;;;;;;;;;16.33;15.67;;;;;10.71;69.75;102964.41;2016230;27;3546062;-74
2024/02/01 01:07:06;;;;;;;;;17.75;15.75;;;;;10.71;69.71;102970.53;2038678;27;1833634;-74
2024/02/01 01:08:17;;;;;;;;;13.33;13.33;;;;;10.71;69.43;102967.91;2001980;27;3513085;-74
2024/02/01 01:09:28;;;;;;;;;15.50;14.50;;;;;10.71;69.50;102969.66;2036413;27;2802369;-74
2024/02/01 01:10:40;;;;;;;;;17.40;16.60;;;;;10.68;69.60;102971.41;2048850;27;1829413;-74
2024/02/01 01:11:51;;;;;;;;;17.33;14.67;;;;;10.69;69.74;102972.28;2031637;27;2804418;-74
2024/02/01 01:13:02;;;;;;;;;14.50;11.75;;;;;10.68;69.60;102968.78;2037640;27;1848232;-74
2024/02/01 01:14:13;;;;;;;;;17.00;17.00;;;;;10.68;69.49;102960.88;2031784;27;2805493;-74
2024/02/01 01:45:19;;;;;;;;;14.00;13.50;;;;;10.56;70.35;102961.75;2031367;27;2800369;-74
2024/02/01 01:47:09;;;;;;;;;14.83;13.33;;;;;10.55;70.37;102970.47;2032885;28;1820140;-74
2024/02/01 01:48:22;;;;;;;;;15.17;14.00;;;;;10.54;70.26;102967.84;2025423;28;1818542;-74
2024/02/01 01:49:36;;;;;;;;;16.71;16.43;;;;;10.55;70.38;102967.84;2030525;28;1833643;-74
2024/02/01 01:50:47;;;;;;;;;13.00;13.00;;;;;10.53;70.57;102974.88;2024288;28;2792972;-74
2024/02/01 01:51:58;;;;;;;;;17.00;14.00;;;;;10.53;70.39;102966.97;2016304;28;2802315;-74
2024/02/01 01:53:09;;;;;;;;;17.00;14.50;;;;;10.54;70.66;102967.84;2010248;28;2803403;-74
2024/02/01 01:54:22;;;;;;;;;15.50;15.50;;;;;10.53;70.29;102976.59;2007768;28;2802319;-74
2024/02/01 01:55:34;;;;;;;;;15.00;15.00;;;;;10.53;70.52;102973.97;2024493;28;2795080;-74
2024/02/01 01:56:45;;;;;;;;;15.00;13.00;;;;;10.52;70.39;102962.56;1993381;28;2789226;-74
2024/02/01 01:57:59;;;;;;;;;18.50;16.50;;;;;10.53;70.71;102955.56;2031664;28;1837805;-74
2024/02/01 01:59:13;;;;;;;;;17.33;16.17;;;;;10.54;70.68;102954.72;2031759;28;1837797;-74
2024/02/01 02:00:24;;;;;;;;;17.67;14.67;;;;;10.54;70.68;102947.69;2000365;27;3545394;-74
2024/02/01 02:01:38;;;;;;;;;17.00;15.00;;;;;10.55;70.42;102945.94;2033128;27;2805471;-74
2024/02/01 02:02:52;;;;;;;;;16.67;15.33;;;;;10.55;70.65;102944.19;2032786;27;1835714;-74
2024/02/01 02:04:05;;;;;;;;;16.00;12.00;;;;;10.55;70.48;102943.31;2001301;28;2801305;-74
2024/02/01 02:05:19;;;;;;;;;16.00;14.83;;;;;10.56;70.70;102934.56;2024730;28;1823213;-74
2024/02/01 02:06:31;;;;;;;;;20.00;18.33;;;;;10.56;70.51;102940.69;1998980;28;2829459;-74
2024/02/01 02:07:41;;;;;;;;;17.50;16.00;;;;;10.56;70.97;102939.81;2016327;28;2807586;-74
2024/02/01 02:08:52;;;;;;;;;14.00;12.75;;;;;10.56;70.74;102938.06;2028298;28;1829474;-74
2024/02/01 02:10:06;;;;;;;;;19.00;16.60;;;;;10.57;70.71;102938.91;2018070;28;2830492;-74
2024/02/01 02:11:16;;;;;;;;;19.00;16.00;;;;;10.57;70.59;102934.53;2001416;28;2830482;-74
2024/02/01 02:12:29;;;;;;;;;16.50;16.00;;;;;10.57;70.91;102937.19;2033387;28;2819039;-74
2024/02/01 02:13:47;;;;;;;;;19.50;15.00;;;;;10.57;70.83;102929.28;2010367;28;2808560;-74
2024/02/01 02:14:59;;;;;;;;;13.00;13.00;;;;;10.57;70.79;102934.53;2000920;28;2789355;-74
2024/02/01 02:16:09;;;;;;;;;14.50;13.50;;;;;10.59;70.82;102929.31;2004062;28;2787795;-74
2024/02/01 02:17:21;;;;;;;;;20.20;14.40;;;;;10.58;70.87;102920.53;2044286;28;2818064;-74
2024/02/01 02:18:35;;;;;;;;;20.71;17.57;;;;;10.59;70.80;102921.41;2052945;27;1841981;-74
2024/02/01 02:19:46;;;;;;;;;16.50;16.00;;;;;10.60;70.95;102927.53;2021910;27;2816928;-74
2024/02/01 02:21:00;;;;;;;;;15.00;13.83;;;;;10.60;70.75;102925.78;2035476;27;2791958;-74
2024/02/01 02:22:12;;;;;;;;;27.67;18.00;;;;;10.61;70.87;102927.56;1996228;27;3575235;-74
2024/02/01 02:23:23;;;;;;;;;16.00;16.00;;;;;10.61;70.92;102921.41;2019277;28;2815906;-74
2024/02/01 02:24:34;;;;;;;;;17.50;17.50;;;;;10.61;70.44;102924.94;2003813;28;2828881;-74
2024/02/01 02:25:48;;;;;;;;;16.50;15.00;;;;;10.62;70.97;102929.28;2016474;27;2806497;-74
2024/02/01 02:27:03;;;;;;;;;16.50;15.00;;;;;10.63;70.93;102932.81;2000418;27;2805459;-74
2024/02/01 02:28:15;;;;;;;;;16.50;14.00;;;;;10.63;71.21;102930.19;2000763;27;2794003;-74
2024/02/01 02:29:25;;;;;;;;;17.00;14.00;;;;;10.64;71.01;102927.53;2007965;27;2827753;-74
2024/02/01 02:30:38;;;;;;;;;18.67;14.33;;;;;10.64;71.27;102938.06;2016753;27;2805521;-74
2024/02/01 02:31:52;;;;;;;;;17.71;16.86;;;;;10.64;71.08;102935.44;2047543;28;1835751;-74
2024/02/01 02:33:04;;;;;;;;;18.00;18.00;;;;;10.65;70.90;102941.56;2014685;28;3558561;-74
2024/02/01 02:34:14;;;;;;;;;17.50;17.00;;;;;10.66;71.11;102935.47;2028012;28;2826323;-74
2024/02/01 02:35:25;;;;;;;;;18.50;14.50;;;;;10.66;70.75;102930.19;2013691;27;2800216;-74
2024/02/01 02:36:37;;;;;;;;;22.33;17.67;;;;;10.67;71.09;102937.19;2010013;28;3569004;-74
2024/02/01 02:37:50;;;;;;;;;18.50;14.50;;;;;10.67;70.91;102934.56;2038533;28;2810680;-74
2024/02/01 02:39:02;;;;;;;;;20.00;17.67;;;;;10.67;70.98;102935.44;2001931;27;2831535;-74
2024/02/01 02:40:19;;;;;;;;;15.20;12.80;;;;;10.69;71.24;102941.59;2041774;28;2789822;-74
2024/02/01 02:41:29;;;;;;;;;15.50;14.50;;;;;10.70;71.01;102937.22;1986521;28;2812769;-74
2024/02/01 02:42:40;;;;;;;;;19.50;18.00;;;;;10.70;70.86;102931.94;2011071;28;2829417;-74
2024/02/01 02:43:52;;;;;;;;;17.50;17.00;;;;;10.71;71.09;102930.19;2016201;28;2829445;-74
2024/02/01 02:45:05;;;;;;;;;16.60;15.40;;;;;10.72;71.13;102924.94;2022490;27;2816921;-75
2024/02/01 02:46:16;;;;;;;;;23.00;16.33;;;;;10.73;70.89;102934.59;2007446;27;2825284;-74
2024/02/01 02:47:27;;;;;;;;;12.00;12.00;;;;;10.75;71.27;102942.47;2033564;27;3495051;-74
2024/02/01 02:48:38;;;;;;;;;18.00;15.00;;;;;10.75;71.20;102937.22;2058634;27;2825273;-74
2024/02/01 02:49:49;;;;;;;;;10.67;8.67;;;;;10.77;71.04;102945.97;2034277;27;3477353;-74
2024/02/01 02:51:01;;;;;;;;;17.67;17.67;;;;;10.76;71.03;102933.72;2048839;27;3557536;-74
2024/02/01 02:52:11;;;;;;;;;18.50;15.50;;;;;10.77;70.94;102936.34;2041855;27;2806540;-74
2024/02/01 02:53:23;;;;;;;;;18.25;14.25;;;;;10.78;71.10;102943.38;2034241;27;1824224;-74
2024/02/01 02:54:36;;;;;;;;;15.57;14.57;;;;;10.80;70.96;102946.00;2040601;27;1835710;-74
2024/02/01 02:55:47;;;;;;;;;14.50;14.50;;;;;10.80;70.99;102946.00;2033582;27;2798191;-74
2024/02/01 02:56:59;;;;;;;;;19.33;17.67;;;;;10.80;71.36;102944.25;2022793;27;2829472;-74
2024/02/01 02:58:10;;;;;;;;;16.67;16.67;;;;;10.82;71.18;102948.63;2030876;27;3555449;-74
2024/02/01 02:59:22;;;;;;;;;15.33;14.67;;;;;10.83;71.04;102950.38;2045844;27;2806591;-74
2024/02/01 03:00:33;;;;;;;;;16.00;16.00;;;;;10.84;71.18;102952.16;2032594;27;2812790;-74
2024/02/01 03:01:44;;;;;;;;;18.50;18.00;;;;;10.85;71.01;102949.50;2017821;27;2817443;-74
2024/02/01 03:02:55;;;;;;;;;16.00;14.50;;;;;10.85;71.04;102949.50;2030634;27;2814860;-74
2024/02/01 03:04:08;;;;;;;;;24.33;20.33;;;;;10.86;70.80;102951.28;2035035;27;3570374;-74
2024/02/01 03:05:18;;;;;;;;;19.50;15.50;;;;;10.86;71.03;102947.75;2036409;27;2814357;-74
2024/02/01 03:06:30;;;;;;;;;18.33;16.67;;;;;10.86;71.03;102939.88;2029632;27;3561695;-74
2024/02/01 03:07:43;;;;;;;;;20.67;17.33;;;;;10.87;71.17;102941.59;2030786;27;3542981;-74
2024/02/01 03:08:53;;;;;;;;;15.00;14.00;;;;;10.88;71.18;102946.00;2031402;27;2794520;-74
2024/02/01 03:10:05;;;;;;;;;20.50;18.50;;;;;10.88;70.71;102939.00;2050175;27;2827801;-74
2024/02/01 03:11:15;;;;;;;;;17.00;10.00;;;;;10.88;70.91;102939.00;2016416;27;2799614;-74
2024/02/01 03:12:26;;;;;;;;;18.50;18.50;;;;;10.88;70.70;102940.75;2031603;27;2818977;-74
2024/02/01 03:13:45;;;;;;;;;16.00;14.50;;;;;10.88;71.07;102927.59;2028229;27;2800267;-74
2024/02/01 03:14:57;;;;;;;;;24.00;18.33;;;;;10.89;71.02;102926.72;2009082;27;3566890;-74
2024/02/01 03:16:22;;;;;;;;;17.00;17.00;;;;;10.89;70.93;102930.22;2055373;27;2821103;-74
2024/02/01 03:17:37;;;;;;;;;18.67;14.00;;;;;10.90;71.02;102931.09;2048551;27;1829451;-74
2024/02/01 03:18:50;;;;;;;;;15.80;13.40;;;;;10.89;70.87;102935.47;2035935;27;2797499;-74
2024/02/01 03:20:17;;;;;;;;;13.20;12.60;;;;;10.90;70.97;102936.34;2040759;27;2781526;-74
2024/02/01 03:21:28;;;;;;;;;18.00;16.00;;;;;10.91;70.92;102932.88;1999664;28;2816965;-74
2024/02/01 03:22:39;;;;;;;;;17.00;14.67;;;;;10.90;70.93;102926.72;2003145;27;2813772;-74
2024/02/01 03:23:58;;;;;;;;;14.00;12.50;;;;;10.91;70.60;102919.72;2070441;27;1825329;-74
2024/02/01 03:25:09;;;;;;;;;16.00;15.50;;;;;10.90;71.19;102917.94;2011868;27;2813883;-74
2024/02/01 03:26:20;;;;;;;;;21.00;18.00;;;;;10.90;71.28;102921.47;2034605;27;2832581;-74
2024/02/01 03:27:31;;;;;;;;;15.50;12.50;;;;;10.90;70.90;102925.84;2035440;27;2798218;-74
2024/02/01 03:28:44;;;;;;;;;16.67;15.33;;;;;10.91;71.05;102927.59;2022406;27;2810228;-74
2024/02/01 03:29:58;;;;;;;;;11.00;10.00;;;;;10.92;70.99;102926.72;2033089;27;2771058;-74
2024/02/01 03:31:09;;;;;;;;;17.50;16.00;;;;;10.92;71.16;102934.59;2005920;27;2822090;-74
2024/02/01 03:32:20;;;;;;;;;13.00;13.00;;;;;10.93;71.07;102940.75;2019152;27;2785711;-74
2024/02/01 03:33:38;;;;;;;;;12.50;11.00;;;;;10.94;71.23;102945.16;2059746;27;2787847;-74
2024/02/01 03:34:49;;;;;;;;;23.00;16.00;;;;;10.94;70.98;102943.38;2009841;27;2840918;-74
2024/02/01 03:36:00;;;;;;;;;22.00;18.00;;;;;10.93;71.13;102943.38;2028698;27;2819011;-74
2024/02/01 03:37:14;;;;;;;;;17.25;17.25;;;;;10.93;70.98;102941.63;2043189;27;1823195;-74
2024/02/01 03:38:28;;;;;;;;;16.83;16.83;;;;;10.95;71.06;102937.25;2048749;27;1825290;-74
2024/02/01 03:39:38;;;;;;;;;15.50;14.00;;;;;10.96;71.16;102946.03;2003822;27;2820060;-74
2024/02/01 03:40:50;;;;;;;;;16.00;14.00;;;;;10.95;71.17;102944.25;2017009;27;3537725;-74
2024/02/01 03:42:05;;;;;;;;;16.00;15.00;;;;;10.95;71.13;102945.13;2038666;27;2816242;-74
2024/02/01 03:43:15;;;;;;;;;18.00;14.00;;;;;10.96;71.08;102946.91;2009250;27;2814852;-74
2024/02/01 03:44:26;;;;;;;;;18.50;16.00;;;;;10.97;71.09;102943.38;2019153;27;2807507;-74
2024/02/01 03:45:48;;;;;;;;;17.00;14.20;;;;;10.98;71.19;102939.00;2052562;27;1833702;-74
2024/02/01 03:46:59;;;;;;;;;16.67;15.67;;;;;10.98;71.11;102929.38;2033944;27;2802345;-74
2024/02/01 03:48:13;;;;;;;;;15.17;12.00;;;;;10.99;71.29;102932.84;2071967;27;1819048;-74
2024/02/01 03:49:25;;;;;;;;;16.40;15.60;;;;;10.99;71.35;102931.09;2036916;27;2812727;-74
2024/02/01 03:50:38;;;;;;;;;15.50;14.50;;;;;11.00;71.47;102926.72;2034788;27;2794359;-74
2024/02/01 03:51:48;;;;;;;;;12.00;12.00;;;;;11.00;71.24;102930.22;2040011;27;2797137;-74
2024/02/01 03:53:00;;;;;;;;;18.33;15.33;;;;;11.02;71.34;102925.84;2033477;27;2816965;-74
2024/02/01 03:54:10;;;;;;;;;17.00;17.00;;;;;11.02;71.28;102919.69;2037370;27;2824247;-74
2024/02/01 03:55:22;;;;;;;;;10.00;10.00;;;;;11.02;71.31;102922.31;2031514;27;2773156;-74
2024/02/01 03:56:33;;;;;;;;;18.00;18.00;;;;;11.03;71.51;102929.38;2023897;27;3555460;-74
2024/02/01 03:57:47;;;;;;;;;14.00;10.00;;;;;11.03;71.30;102934.63;2055573;27;2791949;-74
2024/02/01 03:59:02;;;;;;;;;20.83;16.33;;;;;11.03;71.50;102935.50;2070244;27;1822291;-74
2024/02/01 04:00:28;;;;;;;;;18.00;15.00;;;;;11.04;71.40;102939.00;2017190;27;2808635;-74
2024/02/01 04:01:41;;;;;;;;;14.50;14.50;;;;;11.06;71.58;102936.38;2008043;27;2802339;-74
2024/02/01 04:02:56;;;;;;;;;18.83;14.67;;;;;11.05;72.04;102935.50;2044544;27;1835760;-74
2024/02/01 04:04:07;;;;;;;;;16.50;11.50;;;;;11.06;71.42;102941.66;2015461;27;2804413;-74
2024/02/01 04:05:18;;;;;;;;;15.50;14.50;;;;;11.03;71.73;102932.88;2021800;27;2802335;-74
2024/02/01 04:06:30;;;;;;;;;18.00;14.00;;;;;11.04;71.85;102939.00;2033008;27;3537710;-74
2024/02/01 04:07:43;;;;;;;;;14.33;14.00;;;;;11.05;71.43;102929.34;2060318;27;1829485;-74
2024/02/01 04:08:57;;;;;;;;;18.67;15.67;;;;;11.05;71.65;102924.09;2030479;27;1829605;-74
2024/02/01 04:10:09;;;;;;;;;18.50;14.00;;;;;11.06;71.50;102925.84;2015542;27;2802696;-74
2024/02/01 04:11:24;;;;;;;;;13.33;11.33;;;;;11.06;71.77;102924.09;2048437;27;1825325;-74
2024/02/01 04:12:38;;;;;;;;;14.50;12.17;;;;;11.06;71.50;102928.50;2063612;27;1819094;-74
2024/02/01 04:13:48;;;;;;;;;17.50;13.00;;;;;11.07;71.53;102922.31;2007833;27;2802334;-74
2024/02/01 04:15:02;;;;;;;;;16.33;15.00;;;;;11.06;71.49;102917.97;2023653;27;2816960;-74
2024/02/01 04:16:13;;;;;;;;;14.00;11.50;;;;;11.06;71.74;102925.84;2032083;27;2779414;-74
2024/02/01 04:17:23;;;;;;;;;11.00;11.00;;;;;11.05;71.96;102930.22;2033648;27;2785704;-74
2024/02/01 04:18:35;;;;;;;;;20.50;17.00;;;;;11.05;71.60;102930.22;2058360;27;2812734;-74
2024/02/01 04:19:45;;;;;;;;;10.67;9.33;;;;;11.03;71.31;102938.13;2040230;27;3480452;-74
2024/02/01 04:20:56;;;;;;;;;14.50;12.00;;;;;11.05;71.50;102939.88;2064316;27;2790919;-74
2024/02/01 04:22:11;;;;;;;;;22.33;17.00;;;;;11.03;71.57;102946.03;2033624;27;3557488;-74
2024/02/01 04:23:25;;;;;;;;;18.71;14.57;;;;;11.05;71.60;102937.25;2071037;27;1823667;-74
2024/02/01 04:24:38;;;;;;;;;16.50;13.67;;;;;11.03;71.81;102943.41;2061521;27;1819074;-74
2024/02/01 04:25:50;;;;;;;;;19.33;17.00;;;;;11.04;71.63;102944.25;1996217;27;2835768;-74
2024/02/01 04:27:03;;;;;;;;;14.67;12.33;;;;;11.03;71.66;102932.88;2057510;27;1823361;-74
2024/02/01 04:28:16;;;;;;;;;15.00;15.00;;;;;11.03;71.64;102932.00;2017247;27;2797174;-74
2024/02/01 04:29:27;;;;;;;;;16.00;14.00;;;;;11.02;71.54;102933.75;2006240;27;2802342;-74
2024/02/01 04:30:39;;;;;;;;;13.40;11.80;;;;;11.02;71.67;102944.28;2037013;27;1819012;-74
2024/02/01 04:31:50;;;;;;;;;19.33;16.67;;;;;11.02;72.02;102933.75;1999659;27;3561640;-74
2024/02/01 04:33:02;;;;;;;;;14.67;14.00;;;;;11.03;71.82;102930.25;2055892;27;2790888;-74
2024/02/01 04:34:15;;;;;;;;;20.40;15.60;;;;;11.03;71.76;102932.88;2058852;27;2806497;-74
2024/02/01 04:35:28;;;;;;;;;15.75;13.75;;;;;11.05;71.77;102937.25;2046090;27;1833783;-74
2024/02/01 04:36:38;;;;;;;;;15.50;15.00;;;;;11.05;71.96;102942.50;2015795;27;2798172;-74
2024/02/01 04:37:52;;;;;;;;;15.25;13.50;;;;;11.03;71.73;102943.41;2036162;27;1828384;-74
2024/02/01 04:39:08;;;;;;;;;13.20;12.80;;;;;11.05;71.98;102939.88;2029825;27;2787727;-74
2024/02/01 04:40:20;;;;;;;;;16.50;15.50;;;;;11.06;71.77;102939.91;2005680;27;2813780;-74
2024/02/01 04:41:31;;;;;;;;;18.00;11.50;;;;;11.05;71.53;102938.13;2001627;27;2796057;-74
2024/02/01 04:42:47;;;;;;;;;15.50;15.50;;;;;11.07;71.63;102943.38;2016656;28;2819047;-74
2024/02/01 04:43:58;;;;;;;;;15.00;11.50;;;;;11.06;71.73;102944.28;2003321;27;2798171;-74
2024/02/01 04:45:10;;;;;;;;;13.60;11.40;;;;;11.05;71.84;102942.50;2029482;27;1829426;-74
2024/02/01 04:46:24;;;;;;;;;20.00;14.00;;;;;11.05;71.68;102948.66;2004552;27;2811700;-74
2024/02/01 04:47:36;;;;;;;;;15.67;12.67;;;;;11.05;71.66;102945.13;2010564;27;2807514;-74
2024/02/01 04:48:48;;;;;;;;;13.40;13.20;;;;;11.03;71.95;102948.66;2048139;27;2783556;-74
2024/02/01 04:50:00;;;;;;;;;14.00;10.50;;;;;11.05;71.89;102947.78;2019965;27;2778868;-74
2024/02/01 04:51:11;;;;;;;;;16.00;14.00;;;;;11.05;71.94;102945.13;2038912;27;2804425;-74
2024/02/01 04:52:23;;;;;;;;;8.25;5.25;;;;;11.04;72.09;102946.88;2049152;27;2731500;-74
2024/02/01 04:53:33;;;;;;;;;15.00;15.00;;;;;11.05;72.17;102943.41;2047806;27;2798163;-74
2024/02/01 04:54:44;;;;;;;;;21.00;14.00;;;;;11.06;72.02;102946.91;2031795;27;2812786;-74
2024/02/01 04:55:55;;;;;;;;;13.50;11.25;;;;;11.06;72.23;102937.25;2041923;27;1822141;-74
2024/02/01 04:57:13;;;;;;;;;16.14;13.86;;;;;11.07;72.30;102946.00;2039238;27;1830075;-74
2024/02/01 04:58:23;;;;;;;;;15.50;13.00;;;;;11.06;72.40;102946.91;2033241;27;2799250;-74
2024/02/01 04:59:40;;;;;;;;;16.33;13.33;;;;;11.07;72.06;102943.38;2034547;27;2813799;-74
2024/02/01 05:00:51;;;;;;;;;16.00;15.00;;;;;11.07;72.50;102949.53;2039893;27;2804432;-74
2024/02/01 05:02:04;;;;;;;;;14.50;14.50;;;;;11.06;72.58;102939.91;2032774;27;2786694;-74
2024/02/01 05:03:15;;;;;;;;;17.00;13.00;;;;;11.08;72.82;102934.63;2016176;27;2807574;-74
2024/02/01 05:04:25;;;;;;;;;15.00;10.33;;;;;11.07;72.60;102938.13;2024675;27;3500273;-75
2024/02/01 05:05:36;;;;;;;;;14.50;14.50;;;;;11.07;73.28;102938.13;2056118;27;2790880;-75
2024/02/01 05:06:50;;;;;;;;;17.00;15.40;;;;;11.06;73.23;102939.00;2054165;27;3538767;-75
2024/02/01 05:08:02;;;;;;;;;17.00;15.33;;;;;11.06;73.56;102936.38;2039340;27;2812762;-75
2024/02/01 05:09:25;;;;;;;;;14.50;14.50;;;;;11.05;73.24;102939.88;2039910;27;2803408;-75
2024/02/01 05:10:39;;;;;;;;;17.60;14.40;;;;;11.03;73.40;102937.25;2036580;27;2811677;-75
2024/02/01 05:11:53;;;;;;;;;17.00;13.29;;;;;11.01;73.86;102937.22;2047076;27;1820074;-75
2024/02/01 05:13:03;;;;;;;;;17.00;15.00;;;;;11.01;73.56;102944.28;2039698;27;2785711;-75
2024/02/01 05:14:14;;;;;;;;;12.75;12.50;;;;;11.00;73.80;102946.03;2041780;27;1823208;-76
2024/02/01 05:15:25;;;;;;;;;11.50;11.00;;;;;10.99;74.21;102952.16;2010788;27;2779062;-76
2024/02/01 05:16:36;;;;;;;;;19.50;16.00;;;;;10.99;73.75;102948.63;2037941;27;2818394;-76
2024/02/01 05:17:47;;;;;;;;;16.75;12.25;;;;;10.98;73.71;102953.03;2045081;27;1822173;-75
2024/02/01 05:18:59;;;;;;;;;18.00;15.60;;;;;10.96;74.34;102949.53;2035680;27;2800256;-75
2024/02/01 05:20:11;;;;;;;;;15.67;15.00;;;;;10.95;74.02;102946.88;2036461;27;2808583;-75
2024/02/01 05:21:25;;;;;;;;;13.86;13.00;;;;;10.94;74.46;102946.00;2058166;27;1820071;-76
2024/02/01 05:22:40;;;;;;;;;13.00;12.33;;;;;10.94;74.58;102946.00;2051245;27;1825828;-76
2024/02/01 05:23:50;;;;;;;;;14.00;14.00;;;;;10.93;74.81;102944.25;2010959;27;2790952;-75
2024/02/01 05:25:14;;;;;;;;;14.75;13.25;;;;;10.92;74.46;102934.59;2045910;28;2794384;-76
2024/02/01 05:26:25;;;;;;;;;21.00;17.00;;;;;10.91;75.05;102943.38;2011384;27;2811748;-76
2024/02/01 05:27:37;;;;;;;;;17.60;17.00;;;;;10.90;74.68;102939.00;2044729;27;1833633;-76
2024/02/01 05:28:47;;;;;;;;;18.50;13.50;;;;;10.88;75.08;102941.63;2039947;27;2793984;-76
2024/02/01 05:29:58;;;;;;;;;18.50;16.00;;;;;10.88;74.97;102941.63;2037849;27;2837757;-76
2024/02/01 05:31:09;;;;;;;;;24.50;19.00;;;;;10.87;75.21;102941.59;2034635;27;2841895;-76
2024/02/01 05:32:21;;;;;;;;;15.33;15.33;;;;;10.87;75.21;102938.97;2035466;27;2819061;-76
2024/02/01 05:33:32;;;;;;;;;24.50;15.00;;;;;10.87;75.34;102942.50;2041227;27;2822576;-75
2024/02/01 05:34:45;;;;;;;;;15.80;13.60;;;;;10.86;75.39;102935.50;2035255;27;1821099;-75
2024/02/01 05:35:58;;;;;;;;;16.20;15.80;;;;;10.86;75.49;102940.75;2044719;27;2823524;-75
2024/02/01 05:37:10;;;;;;;;;16.20;15.80;;;;;10.87;75.48;102942.50;2033339;27;3545066;-75
2024/02/01 05:38:21;;;;;;;;;21.00;18.50;;;;;10.86;75.40;102935.50;2069568;27;1831568;-75
2024/02/01 05:39:34;;;;;;;;;16.00;14.50;;;;;10.86;75.59;102938.13;2049604;27;1828442;-76
2024/02/01 05:40:45;;;;;;;;;17.50;14.50;;;;;10.87;75.63;102934.59;2023351;27;2803423;-75
2024/02/01 05:42:01;;;;;;;;;16.00;15.50;;;;;10.87;75.81;102936.34;2051484;27;2822211;-75
2024/02/01 05:43:12;;;;;;;;;16.00;15.00;;;;;10.87;75.50;102938.97;2009471;27;2803375;-75
2024/02/01 05:44:27;;;;;;;;;17.00;14.50;;;;;10.86;75.72;102935.50;2064418;27;1825303;-75
2024/02/01 05:45:39;;;;;;;;;16.60;15.40;;;;;10.85;75.76;102941.63;2038321;27;2822089;-75
2024/02/01 05:46:54;;;;;;;;;20.33;16.67;;;;;10.86;76.14;102951.28;2036650;27;3560688;-75
2024/02/01 05:48:11;;;;;;;;;13.50;13.50;;;;;10.86;75.89;102950.41;2039984;27;2790922;-75
2024/02/01 05:49:31;;;;;;;;;22.00;18.67;;;;;10.86;76.17;102951.28;2018084;27;3561699;-76
2024/02/01 05:50:44;;;;;;;;;13.67;13.50;;;;;10.85;76.15;102946.88;2063830;27;1827446;-76
2024/02/01 05:52:00;;;;;;;;;23.33;18.00;;;;;10.85;75.95;102946.88;2009861;27;3565920;-75